createdAt,value
2019-05-29T00:00:36.052Z,84.11
2019-05-29T00:01:36.033Z,84.62
2019-05-29T00:02:36.039Z,84.31
2019-05-29T00:03:36.037Z,84.52
2019-05-29T00:04:35.994Z,84.52
2019-05-29T00:05:35.989Z,84.93
2019-05-29T00:06:35.981Z,84.62
2019-05-29T00:07:35.963Z,84.93
2019-05-29T00:08:35.962Z,84.31
2019-05-29T00:09:35.960Z,84.31
2019-05-29T00:10:35.928Z,84.14
2019-05-29T00:11:35.920Z,84.66
2019-05-29T00:12:35.905Z,84.77
2019-05-29T00:13:35.915Z,84.87
2019-05-29T00:14:35.898Z,84.97
2019-05-29T00:15:35.908Z,84.77
2019-05-29T00:16:35.865Z,85.28
2019-05-29T00:17:35.864Z,85.28
2019-05-29T00:18:35.848Z,85.34
2019-05-29T00:19:35.845Z,84.66
2019-05-29T00:20:35.819Z,84.87
2019-05-29T00:21:35.829Z,85.07
2019-05-29T00:22:35.798Z,84.97
2019-05-29T00:23:35.787Z,84.97
2019-05-29T00:24:35.789Z,84.91
2019-05-29T00:25:35.764Z,84.59
2019-05-29T00:26:35.754Z,85.28
2019-05-29T00:27:35.781Z,85.59
2019-05-29T00:28:35.729Z,85.31
2019-05-29T00:29:35.720Z,85.38
2019-05-29T00:30:35.729Z,85.28
2019-05-29T00:31:35.696Z,85.22
2019-05-29T00:32:36.105Z,85.22
2019-05-29T00:33:35.673Z,85.22
2019-05-29T00:34:35.662Z,84.66
2019-05-29T00:35:35.654Z,84.59
2019-05-29T00:36:35.643Z,85.31
2019-05-29T00:37:35.629Z,85.52
2019-05-29T00:38:35.661Z,85.63
2019-05-29T00:39:35.609Z,85.31
2019-05-29T00:40:35.609Z,85.31
2019-05-29T00:41:35.589Z,85.22
2019-05-29T00:42:35.583Z,85.42
2019-05-29T00:43:35.577Z,85.42
2019-05-29T00:44:35.602Z,85.05
2019-05-29T00:45:35.548Z,84.80
2019-05-29T00:46:35.539Z,84.84
2019-05-29T00:47:35.522Z,84.94
2019-05-29T00:48:35.513Z,84.84
2019-05-29T00:49:35.515Z,85.46
2019-05-29T00:50:35.508Z,85.57
2019-05-29T00:51:35.476Z,85.46
2019-05-29T00:52:35.495Z,85.36
2019-05-29T00:53:35.453Z,85.36
2019-05-29T00:54:35.463Z,84.84
2019-05-29T00:55:35.439Z,85.05
2019-05-29T00:56:35.440Z,85.57
2019-05-29T00:57:35.411Z,85.97
2019-05-29T00:58:35.400Z,85.87
2019-05-29T00:59:35.387Z,86.29
2019-05-29T01:00:35.389Z,86.08
2019-05-29T01:01:35.367Z,85.57
2019-05-29T01:02:35.374Z,85.46
2019-05-29T01:03:35.346Z,85.25
2019-05-29T01:04:35.349Z,85.46
2019-05-29T01:05:35.335Z,85.25
2019-05-29T01:06:35.325Z,85.67
2019-05-29T01:07:35.299Z,86.39
2019-05-29T01:08:35.334Z,87.01
2019-05-29T01:09:35.277Z,86.49
2019-05-29T01:10:35.294Z,85.87
2019-05-29T01:11:35.274Z,85.60
2019-05-29T01:12:35.245Z,85.91
2019-05-29T01:13:35.235Z,86.84
2019-05-29T01:14:49.288Z,86.94
2019-05-29T01:15:36.210Z,86.70
2019-05-29T01:16:35.207Z,85.50
2019-05-29T01:17:35.203Z,85.67
2019-05-29T01:18:35.182Z,86.18
2019-05-29T01:19:35.170Z,86.18
2019-05-29T01:20:35.189Z,86.08
2019-05-29T01:21:35.146Z,87.05
2019-05-29T01:22:35.166Z,86.80
2019-05-29T01:23:35.125Z,86.74
2019-05-29T01:24:42.730Z,86.02
2019-05-29T01:25:35.109Z,84.78
2019-05-29T01:26:35.100Z,85.09
2019-05-29T01:27:35.087Z,84.99
2019-05-29T01:28:35.110Z,85.30
2019-05-29T01:29:35.076Z,85.50
2019-05-29T01:30:35.073Z,85.30
2019-05-29T01:31:35.036Z,85.50
2019-05-29T01:32:35.026Z,85.39
2019-05-29T01:33:35.017Z,85.44
2019-05-29T01:34:35.003Z,85.02
2019-05-29T01:35:34.997Z,85.23
2019-05-29T01:36:35.007Z,85.54
2019-05-29T01:37:34.970Z,85.64
2019-05-29T01:38:34.961Z,86.05
2019-05-29T01:39:34.954Z,85.85
2019-05-29T01:40:34.939Z,86.16
2019-05-29T01:41:34.924Z,85.44
2019-05-29T01:42:34.942Z,85.44
2019-05-29T01:43:34.908Z,85.54
2019-05-29T01:44:34.894Z,85.95
2019-05-29T01:45:34.910Z,86.05
2019-05-29T01:46:34.870Z,85.64
2019-05-29T01:47:34.882Z,85.95
2019-05-29T01:48:34.849Z,85.64
2019-05-29T01:49:34.870Z,85.33
2019-05-29T01:50:34.829Z,85.44
2019-05-29T01:51:34.815Z,85.75
2019-05-29T01:52:34.804Z,86.16
2019-05-29T01:53:34.834Z,86.26
2019-05-29T01:54:34.783Z,87.02
2019-05-29T01:55:34.780Z,86.36
2019-05-29T01:56:34.759Z,86.98
2019-05-29T01:57:34.781Z,86.20
2019-05-29T01:58:34.743Z,85.99
2019-05-29T01:59:34.739Z,86.10
2019-05-29T02:00:34.718Z,86.71
2019-05-29T02:01:34.708Z,86.92
2019-05-29T02:02:34.714Z,86.92
2019-05-29T02:03:34.686Z,87.02
2019-05-29T02:04:34.673Z,85.89
2019-05-29T02:05:34.667Z,87.02
2019-05-29T02:06:34.651Z,86.78
2019-05-29T02:07:34.647Z,86.20
2019-05-29T02:08:34.652Z,86.20
2019-05-29T02:09:34.617Z,86.20
2019-05-29T02:10:34.606Z,85.89
2019-05-29T02:11:34.594Z,85.68
2019-05-29T02:12:34.583Z,86.13
2019-05-29T02:13:34.575Z,87.02
2019-05-29T02:14:34.577Z,86.51
2019-05-29T02:15:34.551Z,86.82
2019-05-29T02:16:34.541Z,86.82
2019-05-29T02:17:34.527Z,86.96
2019-05-29T02:18:34.517Z,86.30
2019-05-29T02:19:34.528Z,86.92
2019-05-29T02:20:34.508Z,86.82
2019-05-29T02:21:34.497Z,86.86
2019-05-29T02:22:34.471Z,86.34
2019-05-29T02:23:34.462Z,87.07
2019-05-29T02:24:34.453Z,86.13
2019-05-29T02:25:34.464Z,86.44
2019-05-29T02:26:34.447Z,86.13
2019-05-29T02:27:34.416Z,85.41
2019-05-29T02:28:34.405Z,85.62
2019-05-29T02:29:34.397Z,85.62
2019-05-29T02:30:34.389Z,85.41
2019-05-29T02:31:34.387Z,85.72
2019-05-29T02:32:34.394Z,85.93
2019-05-29T02:33:34.356Z,85.97
2019-05-29T02:34:34.346Z,86.18
2019-05-29T02:35:34.328Z,86.44
2019-05-29T02:36:34.317Z,86.34
2019-05-29T02:37:34.330Z,86.79
2019-05-29T02:38:34.309Z,86.13
2019-05-29T02:39:34.285Z,86.90
2019-05-29T02:40:34.295Z,86.90
2019-05-29T02:41:34.286Z,86.55
2019-05-29T02:42:34.287Z,86.79
2019-05-29T02:43:34.264Z,86.55
2019-05-29T02:44:34.256Z,87.10
2019-05-29T02:45:52.607Z,85.76
2019-05-29T02:46:35.212Z,85.86
2019-05-29T02:47:34.199Z,86.28
2019-05-29T02:48:34.199Z,87.21
2019-05-29T02:49:34.180Z,86.69
2019-05-29T02:50:34.170Z,86.69
2019-05-29T02:51:34.160Z,86.28
2019-05-29T02:52:34.141Z,86.79
2019-05-29T02:53:34.151Z,87.21
2019-05-29T02:54:34.124Z,87.10
2019-05-29T02:55:34.110Z,86.32
2019-05-29T02:56:34.111Z,87.10
2019-05-29T02:57:34.093Z,86.52
2019-05-29T02:58:34.087Z,87.10
2019-05-29T02:59:34.102Z,86.59
2019-05-29T03:00:34.066Z,86.42
2019-05-29T03:01:34.042Z,87.04
2019-05-29T03:02:34.048Z,86.69
2019-05-29T03:03:39.522Z,86.38
2019-05-29T03:04:35.020Z,86.21
2019-05-29T03:05:34.007Z,87.00
2019-05-29T03:06:33.986Z,86.49
2019-05-29T03:07:33.974Z,87.21
2019-05-29T03:08:34.502Z,86.49
2019-05-29T03:09:33.956Z,87.25
2019-05-29T03:10:33.952Z,86.83
2019-05-29T03:11:33.930Z,86.42
2019-05-29T03:12:33.919Z,86.94
2019-05-29T03:13:33.915Z,87.25
2019-05-29T03:14:34.713Z,87.25
2019-05-29T03:15:33.964Z,87.46
2019-05-29T03:16:34.949Z,87.35
2019-05-29T03:17:33.974Z,87.21
2019-05-29T03:18:35.055Z,87.15
2019-05-29T03:19:34.667Z,87.04
2019-05-29T03:20:34.533Z,87.35
2019-05-29T03:21:34.735Z,86.32
2019-05-29T03:22:35.381Z,86.42
2019-05-29T03:23:35.912Z,87.15
2019-05-29T03:24:35.120Z,87.15
2019-05-29T03:25:35.145Z,86.73
2019-05-29T03:26:35.096Z,86.52
2019-05-29T03:27:34.028Z,87.46
2019-05-29T03:28:34.859Z,87.35
2019-05-29T03:29:34.317Z,87.66
2019-05-29T03:30:41.369Z,87.25
2019-05-29T03:31:41.990Z,86.42
2019-05-29T03:32:45.774Z,86.21
2019-05-29T03:33:43.818Z,85.49
2019-05-29T03:34:42.221Z,85.84
2019-05-29T03:35:43.894Z,86.21
2019-05-29T03:36:42.542Z,86.57
2019-05-29T03:37:34.645Z,87.25
2019-05-29T03:38:34.957Z,87.15
2019-05-29T03:39:34.615Z,87.49
2019-05-29T03:40:35.228Z,87.76
2019-05-29T03:41:34.860Z,87.25
2019-05-29T03:42:34.427Z,86.77
2019-05-29T03:43:35.803Z,87.39
2019-05-29T03:44:35.335Z,87.29
2019-05-29T03:45:35.692Z,87.76
2019-05-29T03:46:41.080Z,87.97
2019-05-29T03:47:35.074Z,87.15
2019-05-29T03:48:34.395Z,87.56
2019-05-29T03:49:35.001Z,87.25
2019-05-29T03:50:34.951Z,87.66
2019-05-29T03:51:35.107Z,87.25
2019-05-29T03:52:34.663Z,87.04
2019-05-29T03:53:34.284Z,86.94
2019-05-29T03:54:35.326Z,87.04
2019-05-29T03:55:33.837Z,87.46
2019-05-29T03:56:34.832Z,87.46
2019-05-29T03:57:33.859Z,87.25
2019-05-29T03:58:34.837Z,87.25
2019-05-29T03:59:35.105Z,87.15
2019-05-29T04:00:41.760Z,87.46
2019-05-29T04:01:35.551Z,86.42
2019-05-29T04:02:35.258Z,87.35
2019-05-29T04:03:35.273Z,86.94
2019-05-29T04:04:34.106Z,87.66
2019-05-29T04:05:33.912Z,87.25
2019-05-29T04:06:33.479Z,87.97
2019-05-29T04:07:34.107Z,87.66
2019-05-29T04:08:33.638Z,87.04
2019-05-29T04:09:33.449Z,87.76
2019-05-29T04:10:35.526Z,87.66
2019-05-29T04:11:33.300Z,87.56
2019-05-29T04:12:33.519Z,86.94
2019-05-29T04:13:34.093Z,87.15
2019-05-29T04:14:33.526Z,87.46
2019-05-29T04:15:33.843Z,87.97
2019-05-29T04:16:52.398Z,87.35
2019-05-29T04:17:35.466Z,87.46
2019-05-29T04:18:33.894Z,87.35
2019-05-29T04:19:34.923Z,87.46
2019-05-29T04:20:33.586Z,87.15
2019-05-29T04:21:34.336Z,87.97
2019-05-29T04:22:34.397Z,87.56
2019-05-29T04:23:34.112Z,87.66
2019-05-29T04:24:33.952Z,88.07
2019-05-29T04:25:36.014Z,87.52
2019-05-29T04:26:34.118Z,87.76
2019-05-29T04:27:34.280Z,87.83
2019-05-29T04:28:34.705Z,87.93
2019-05-29T04:29:34.152Z,87.52
2019-05-29T04:30:34.331Z,87.62
2019-05-29T04:31:34.488Z,88.04
2019-05-29T04:32:34.201Z,88.14
2019-05-29T04:33:34.782Z,87.93
2019-05-29T04:34:34.282Z,87.93
2019-05-29T04:35:34.466Z,87.93
2019-05-29T04:36:34.729Z,88.14
2019-05-29T04:37:34.314Z,87.83
2019-05-29T04:38:33.825Z,87.93
2019-05-29T04:39:34.399Z,87.62
2019-05-29T04:40:34.791Z,87.73
2019-05-29T04:41:34.619Z,88.04
2019-05-29T04:42:33.993Z,88.20
2019-05-29T04:43:33.799Z,88.71
2019-05-29T04:44:33.901Z,87.99
2019-05-29T04:45:33.589Z,87.58
2019-05-29T04:46:34.015Z,88.24
2019-05-29T04:47:33.366Z,87.93
2019-05-29T04:48:34.031Z,87.79
2019-05-29T04:49:33.734Z,88.20
2019-05-29T04:50:33.508Z,88.61
2019-05-29T04:51:33.154Z,88.71
2019-05-29T04:52:33.864Z,88.92
2019-05-29T04:53:33.530Z,88.82
2019-05-29T04:54:33.340Z,88.37
2019-05-29T04:55:32.786Z,88.78
2019-05-29T04:56:32.843Z,88.78
2019-05-29T04:57:32.904Z,88.47
2019-05-29T04:58:32.870Z,88.78
2019-05-29T04:59:33.067Z,88.89
2019-05-29T05:00:33.148Z,88.84
2019-05-29T05:01:33.016Z,88.84
2019-05-29T05:02:33.006Z,88.53
2019-05-29T05:03:33.188Z,88.12
2019-05-29T05:04:33.191Z,89.15
2019-05-29T05:05:33.279Z,89.22
2019-05-29T05:06:33.187Z,89.73
2019-05-29T05:07:33.189Z,89.32
2019-05-29T05:08:33.339Z,88.56
2019-05-29T05:09:33.370Z,88.56
2019-05-29T05:10:33.379Z,88.24
2019-05-29T05:11:33.367Z,88.76
2019-05-29T05:12:33.626Z,88.76
2019-05-29T05:13:33.455Z,88.56
2019-05-29T05:14:33.609Z,88.92
2019-05-29T05:15:33.600Z,89.23
2019-05-29T05:16:33.483Z,88.62
2019-05-29T05:17:33.731Z,89.61
2019-05-29T05:18:33.734Z,88.99
2019-05-29T05:19:33.828Z,88.64
2019-05-29T05:20:32.506Z,87.81
2019-05-29T05:21:32.493Z,87.36
2019-05-29T05:22:32.524Z,87.52
2019-05-29T05:23:32.480Z,86.25
2019-05-29T05:24:32.464Z,86.46
2019-05-29T05:25:32.453Z,85.70
2019-05-29T05:26:32.435Z,84.67
2019-05-29T05:27:32.426Z,84.16
2019-05-29T05:28:32.424Z,84.12
2019-05-29T05:29:32.405Z,83.81
2019-05-29T05:30:32.484Z,83.67
2019-05-29T05:31:32.436Z,83.32
2019-05-29T05:32:32.618Z,82.91
2019-05-29T05:33:32.449Z,81.85
2019-05-29T05:34:32.609Z,81.64
2019-05-29T05:35:32.628Z,81.74
2019-05-29T05:36:32.641Z,81.50
2019-05-29T05:37:32.681Z,80.85
2019-05-29T05:38:32.616Z,79.79
2019-05-29T05:39:32.784Z,79.58
2019-05-29T05:40:33.019Z,78.63
2019-05-29T05:41:32.727Z,78.97
2019-05-29T05:42:32.886Z,79.58
2019-05-29T05:43:32.854Z,79.27
2019-05-29T05:44:32.834Z,79.79
2019-05-29T05:45:32.988Z,79.89
2019-05-29T05:46:32.935Z,80.40
2019-05-29T05:47:44.964Z,80.09
2019-05-29T05:48:33.193Z,79.89
2019-05-29T05:49:33.216Z,79.24
2019-05-29T05:50:33.288Z,79.64
2019-05-29T05:51:33.350Z,79.50
2019-05-29T05:52:33.682Z,79.37
2019-05-29T05:53:33.319Z,78.11
2019-05-29T05:54:33.296Z,77.49
2019-05-29T05:55:33.417Z,76.33
2019-05-29T05:56:33.577Z,75.71
2019-05-29T05:57:32.104Z,75.31
2019-05-29T05:58:32.083Z,74.66
2019-05-29T05:59:32.072Z,74.05
2019-05-29T06:00:32.177Z,73.84
2019-05-29T06:01:32.059Z,73.50
2019-05-29T06:02:32.045Z,72.96
2019-05-29T06:03:32.026Z,72.65
2019-05-29T06:04:32.014Z,73.03
2019-05-29T06:05:32.217Z,73.33
2019-05-29T06:06:32.039Z,73.30
2019-05-29T06:07:32.038Z,72.52
2019-05-29T06:08:32.094Z,71.39
2019-05-29T06:09:32.687Z,71.19
2019-05-29T06:10:32.106Z,71.19
2019-05-29T06:11:32.250Z,70.99
2019-05-29T06:12:32.266Z,71.47
2019-05-29T06:13:32.177Z,71.30
2019-05-29T06:14:32.338Z,70.86
2019-05-29T06:15:32.382Z,70.86
2019-05-29T06:16:32.947Z,70.89
2019-05-29T06:17:32.348Z,68.85
2019-05-29T06:18:32.384Z,69.36
2019-05-29T06:19:32.758Z,69.87
2019-05-29T06:20:32.648Z,70.48
2019-05-29T06:21:32.554Z,69.76
2019-05-29T06:22:32.874Z,69.46
2019-05-29T06:23:32.778Z,69.06
2019-05-29T06:24:33.403Z,68.68
2019-05-29T06:25:33.601Z,67.55
2019-05-29T06:26:32.752Z,67.46
2019-05-29T06:27:33.005Z,69.26
2019-05-29T06:28:32.895Z,69.06
2019-05-29T06:29:33.410Z,67.80
2019-05-29T06:30:33.885Z,69.23
2019-05-29T06:31:31.722Z,68.34
2019-05-29T06:32:31.704Z,68.85
2019-05-29T06:33:31.694Z,69.15
2019-05-29T06:34:31.705Z,68.65
2019-05-29T06:35:31.671Z,68.82
2019-05-29T06:36:31.660Z,70.07
2019-05-29T06:37:31.656Z,70.45
2019-05-29T06:38:31.636Z,68.24
2019-05-29T06:39:31.628Z,68.44
2019-05-29T06:40:31.626Z,68.65
2019-05-29T06:41:31.614Z,68.85
2019-05-29T06:42:31.604Z,68.34
2019-05-29T06:43:31.588Z,67.43
2019-05-29T06:44:31.657Z,69.43
2019-05-29T06:45:31.559Z,68.31
2019-05-29T06:46:31.564Z,68.24
2019-05-29T06:47:31.538Z,70.28
2019-05-29T06:48:42.652Z,69.23
2019-05-29T06:49:32.522Z,68.21
2019-05-29T06:50:31.522Z,68.82
2019-05-29T06:51:31.508Z,68.01
2019-05-29T06:52:31.485Z,65.62
2019-05-29T06:53:31.475Z,67.25
2019-05-29T06:54:31.460Z,68.98
2019-05-29T06:55:31.487Z,70.38
2019-05-29T06:56:31.461Z,67.12
2019-05-29T06:57:31.428Z,64.98
2019-05-29T06:58:31.419Z,68.21
2019-05-29T06:59:31.405Z,68.31
2019-05-29T07:00:35.273Z,65.97
2019-05-29T07:01:31.399Z,68.01
2019-05-29T07:02:31.978Z,68.82
2019-05-29T07:03:31.375Z,67.60
2019-05-29T07:04:31.348Z,67.39
2019-05-29T07:05:31.341Z,66.17
2019-05-29T07:06:31.325Z,65.25
2019-05-29T07:07:31.336Z,63.35
2019-05-29T07:08:38.692Z,64.81
2019-05-29T07:09:32.293Z,65.69
2019-05-29T07:10:31.284Z,65.19
2019-05-29T07:11:31.291Z,64.98
2019-05-29T07:12:31.261Z,65.39
2019-05-29T07:13:34.886Z,67.22
2019-05-29T07:14:31.246Z,65.16
2019-05-29T07:15:31.229Z,67.90
2019-05-29T07:16:43.753Z,66.47
2019-05-29T07:17:32.215Z,68.31
2019-05-29T07:18:31.194Z,69.63
2019-05-29T07:19:47.816Z,69.63
2019-05-29T07:20:32.172Z,67.49
2019-05-29T07:21:31.181Z,65.56
2019-05-29T07:22:31.149Z,66.88
2019-05-29T07:23:31.138Z,65.05
2019-05-29T07:24:31.133Z,69.26
2019-05-29T07:25:31.191Z,69.02
2019-05-29T07:26:31.105Z,68.62
2019-05-29T07:27:31.095Z,68.82
2019-05-29T07:28:31.112Z,68.92
2019-05-29T07:29:31.089Z,68.21
2019-05-29T07:30:31.078Z,66.47
2019-05-29T07:31:31.179Z,65.97
2019-05-29T07:32:31.044Z,67.19
2019-05-29T07:33:31.028Z,67.60
2019-05-29T07:34:49.395Z,66.99
2019-05-29T07:35:32.047Z,67.19
2019-05-29T07:36:31.004Z,64.78
2019-05-29T07:37:31.049Z,65.28
2019-05-29T07:38:30.973Z,66.82
2019-05-29T07:39:30.962Z,65.08
2019-05-29T07:40:34.956Z,65.66
2019-05-29T07:41:30.955Z,64.37
2019-05-29T07:42:30.932Z,64.95
2019-05-29T07:43:30.952Z,65.77
2019-05-29T07:44:30.905Z,67.80
2019-05-29T07:45:30.895Z,68.10
2019-05-29T07:46:30.892Z,63.01
2019-05-29T07:47:30.904Z,64.51
2019-05-29T07:48:30.863Z,67.05
2019-05-29T07:49:39.094Z,67.02
2019-05-29T07:50:31.841Z,67.22
2019-05-29T07:51:30.828Z,65.53
2019-05-29T07:52:30.826Z,63.46
2019-05-29T07:53:33.609Z,64.92
2019-05-29T07:54:30.808Z,62.04
2019-05-29T07:55:30.845Z,62.04
2019-05-29T07:56:30.788Z,62.75
2019-05-29T07:57:30.760Z,60.72
2019-05-29T07:58:30.760Z,63.29
2019-05-29T07:59:30.755Z,60.92
2019-05-29T08:00:35.486Z,61.63
2019-05-29T08:01:31.769Z,61.51
2019-05-29T08:02:30.716Z,60.69
2019-05-29T08:03:30.697Z,60.66
2019-05-29T08:04:30.682Z,60.05
2019-05-29T08:05:30.672Z,60.15
2019-05-29T08:06:30.663Z,61.75
2019-05-29T08:07:30.700Z,61.68
2019-05-29T08:08:30.649Z,61.78
2019-05-29T08:09:30.629Z,64.09
2019-05-29T08:10:30.618Z,64.18
2019-05-29T08:11:30.608Z,63.28
2019-05-29T08:12:30.627Z,59.92
2019-05-29T08:13:30.619Z,60.43
2019-05-29T08:14:30.582Z,61.85
2019-05-29T08:15:30.564Z,59.48
2019-05-29T08:16:30.569Z,59.59
2019-05-29T08:17:30.538Z,58.98
2019-05-29T08:18:30.541Z,56.95
2019-05-29T08:19:30.674Z,57.56
2019-05-29T08:20:30.549Z,57.97
2019-05-29T08:21:30.493Z,61.08
2019-05-29T08:22:34.532Z,57.73
2019-05-29T08:23:30.497Z,55.91
2019-05-29T08:24:30.464Z,55.78
2019-05-29T08:25:30.462Z,54.97
2019-05-29T08:26:30.442Z,54.84
2019-05-29T08:27:30.458Z,57.68
2019-05-29T08:28:30.416Z,58.47
2019-05-29T08:29:30.430Z,55.93
2019-05-29T08:30:30.395Z,56.10
2019-05-29T08:31:30.393Z,53.78
2019-05-29T08:32:30.372Z,50.94
2019-05-29T08:33:30.380Z,52.79
2019-05-29T08:34:30.350Z,52.46
2019-05-29T08:35:30.338Z,57.42
2019-05-29T08:36:30.360Z,57.53
2019-05-29T08:37:30.365Z,54.38
2019-05-29T08:38:30.351Z,53.67
2019-05-29T08:39:36.135Z,52.84
2019-05-29T08:40:31.290Z,56.08
2019-05-29T08:41:30.274Z,55.27
2019-05-29T08:42:30.264Z,51.81
2019-05-29T08:43:30.303Z,51.90
2019-05-29T08:44:30.255Z,51.09
2019-05-29T08:45:30.269Z,53.42
2019-05-29T08:46:33.305Z,52.79
2019-05-29T08:47:30.210Z,51.90
2019-05-29T08:48:30.221Z,55.52
2019-05-29T08:49:30.251Z,53.40
2019-05-29T08:50:30.190Z,54.82
2019-05-29T08:51:30.163Z,52.79
2019-05-29T08:52:30.151Z,56.43
2019-05-29T08:53:30.140Z,51.28
2019-05-29T08:54:30.143Z,55.73
2019-05-29T08:55:30.163Z,53.70
2019-05-29T08:56:30.117Z,54.11
2019-05-29T08:57:30.109Z,53.90
2019-05-29T08:58:30.088Z,51.07
2019-05-29T08:59:30.074Z,50.77
2019-05-29T09:00:30.064Z,52.89
2019-05-29T09:01:30.104Z,51.68
2019-05-29T09:02:30.060Z,53.90
2019-05-29T09:03:30.034Z,51.96
2019-05-29T09:04:30.024Z,49.93
2019-05-29T09:05:30.008Z,47.74
2019-05-29T09:06:30.013Z,47.88
2019-05-29T09:07:30.005Z,48.59
2019-05-29T09:08:29.979Z,48.99
2019-05-29T09:09:29.989Z,50.99
2019-05-29T09:10:29.953Z,50.46
2019-05-29T09:11:29.946Z,48.02
2019-05-29T09:12:30.201Z,48.60
2019-05-29T09:13:29.943Z,51.61
2019-05-29T09:14:29.915Z,47.99
2019-05-29T09:15:29.898Z,45.37
2019-05-29T09:16:29.885Z,46.09
2019-05-29T09:17:29.877Z,48.11
2019-05-29T09:18:29.878Z,50.82
2019-05-29T09:19:29.871Z,48.90
2019-05-29T09:20:50.218Z,45.37
2019-05-29T09:21:30.830Z,46.68
2019-05-29T09:22:29.841Z,48.47
2019-05-29T09:23:29.809Z,44.03
2019-05-29T09:24:29.819Z,48.55
2019-05-29T09:25:29.810Z,43.02
2019-05-29T09:26:29.775Z,46.76
2019-05-29T09:27:29.764Z,46.96
2019-05-29T09:28:29.765Z,47.97
2019-05-29T09:29:29.753Z,48.55
2019-05-29T09:30:29.742Z,45.61
2019-05-29T09:31:29.769Z,49.33
2019-05-29T09:32:48.360Z,48.21
2019-05-29T09:33:30.710Z,46.99
2019-05-29T09:34:29.708Z,45.78
2019-05-29T09:35:29.715Z,45.20
2019-05-29T09:36:29.700Z,48.13
2019-05-29T09:37:29.693Z,45.93
2019-05-29T09:38:29.660Z,45.42
2019-05-29T09:39:29.639Z,45.53
2019-05-29T09:40:29.620Z,47.02
2019-05-29T09:41:29.627Z,47.04
2019-05-29T09:42:29.599Z,48.25
2019-05-29T09:43:30.909Z,45.53
2019-05-29T09:44:38.247Z,44.82
2019-05-29T09:45:30.600Z,44.82
2019-05-29T09:46:29.554Z,47.02
2019-05-29T09:47:29.567Z,47.82
2019-05-29T09:48:29.531Z,44.07
2019-05-29T09:49:29.560Z,43.28
2019-05-29T09:50:48.478Z,42.58
2019-05-29T09:51:30.511Z,42.58
2019-05-29T09:52:30.803Z,42.90
2019-05-29T09:53:29.503Z,44.11
2019-05-29T09:54:29.556Z,42.80
2019-05-29T09:55:29.499Z,45.32
2019-05-29T09:56:29.454Z,44.70
2019-05-29T09:57:29.461Z,44.51
2019-05-29T09:58:29.436Z,42.88
2019-05-29T09:59:29.437Z,41.56
2019-05-29T10:00:37.941Z,40.94
2019-05-29T10:01:29.387Z,45.66
2019-05-29T10:02:29.374Z,47.98
2019-05-29T10:03:29.367Z,42.84
2019-05-29T10:04:29.355Z,41.11
2019-05-29T10:05:29.356Z,38.28
2019-05-29T10:06:29.336Z,37.19
2019-05-29T10:07:29.334Z,42.94
2019-05-29T10:08:29.330Z,40.70
2019-05-29T10:09:29.313Z,41.31
2019-05-29T10:10:29.305Z,38.10
2019-05-29T10:11:29.282Z,40.52
2019-05-29T10:12:29.267Z,41.71
2019-05-29T10:13:29.261Z,38.22
2019-05-29T10:14:29.256Z,37.53
2019-05-29T10:15:29.249Z,39.33
2019-05-29T10:16:29.238Z,41.35
2019-05-29T10:17:29.215Z,41.45
2019-05-29T10:18:32.495Z,41.65
2019-05-29T10:19:29.194Z,41.42
2019-05-29T10:20:29.187Z,39.43
2019-05-29T10:21:39.965Z,39.33
2019-05-29T10:22:30.167Z,41.05
2019-05-29T10:23:29.146Z,41.42
2019-05-29T10:24:32.318Z,40.01
2019-05-29T10:25:29.124Z,40.82
2019-05-29T10:26:29.128Z,43.62
2019-05-29T10:27:29.118Z,38.73
2019-05-29T10:28:48.350Z,41.83
2019-05-29T10:29:30.093Z,41.53
2019-05-29T10:30:29.068Z,42.92
2019-05-29T10:31:29.071Z,43.30
2019-05-29T10:32:29.061Z,43.02
2019-05-29T10:33:29.052Z,43.60
2019-05-29T10:34:29.057Z,44.11
2019-05-29T10:35:29.023Z,41.33
2019-05-29T10:36:29.026Z,43.10
2019-05-29T10:37:29.024Z,45.87
2019-05-29T10:38:28.999Z,45.67
2019-05-29T10:39:28.967Z,48.32
2019-05-29T10:40:28.964Z,47.20
2019-05-29T10:41:28.945Z,47.99
2019-05-29T10:42:29.044Z,48.78
2019-05-29T10:43:34.188Z,50.45
2019-05-29T10:44:29.942Z,45.38
2019-05-29T10:45:28.923Z,46.67
2019-05-29T10:46:28.904Z,43.24
2019-05-29T10:47:28.903Z,43.85
2019-05-29T10:48:28.877Z,44.75
2019-05-29T10:49:28.865Z,45.56
2019-05-29T10:50:28.846Z,42.72
2019-05-29T10:51:28.834Z,43.62
2019-05-29T10:52:28.850Z,46.42
2019-05-29T10:53:28.839Z,42.19
2019-05-29T10:54:28.804Z,43.10
2019-05-29T10:55:28.799Z,48.32
2019-05-29T10:56:28.792Z,45.27
2019-05-29T10:57:28.768Z,45.07
2019-05-29T10:58:28.987Z,44.35
2019-05-29T10:59:28.804Z,43.95
2019-05-29T11:00:28.765Z,41.55
2019-05-29T11:01:28.745Z,43.36
2019-05-29T11:02:28.747Z,43.36
2019-05-29T11:03:28.712Z,45.55
2019-05-29T11:04:28.689Z,41.83
2019-05-29T11:05:28.693Z,41.13
2019-05-29T11:06:28.671Z,45.05
2019-05-29T11:07:28.662Z,46.34
2019-05-29T11:08:28.664Z,42.52
2019-05-29T11:09:43.206Z,41.13
2019-05-29T11:10:29.640Z,42.54
2019-05-29T11:11:28.624Z,41.43
2019-05-29T11:12:28.605Z,43.12
2019-05-29T11:13:28.598Z,42.03
2019-05-29T11:14:28.598Z,41.82
2019-05-29T11:15:28.577Z,42.11
2019-05-29T11:16:28.562Z,38.09
2019-05-29T11:17:28.556Z,41.63
2019-05-29T11:18:28.580Z,41.33
2019-05-29T11:19:28.540Z,39.32
2019-05-29T11:20:28.518Z,39.82
2019-05-29T11:21:28.562Z,40.55
2019-05-29T11:22:28.497Z,40.55
2019-05-29T11:23:28.534Z,40.34
2019-05-29T11:24:28.498Z,41.25
2019-05-29T11:25:28.502Z,41.35
2019-05-29T11:26:28.463Z,41.77
2019-05-29T11:27:28.449Z,41.47
2019-05-29T11:28:28.429Z,39.28
2019-05-29T11:29:28.430Z,41.11
2019-05-29T11:30:28.428Z,45.21
2019-05-29T11:31:28.410Z,40.66
2019-05-29T11:32:28.446Z,42.18
2019-05-29T11:33:28.402Z,45.59
2019-05-29T11:34:28.364Z,45.39
2019-05-29T11:35:28.351Z,41.57
2019-05-29T11:36:28.360Z,41.35
2019-05-29T11:37:28.348Z,40.46
2019-05-29T11:38:28.351Z,42.88
2019-05-29T11:39:28.312Z,40.58
2019-05-29T11:40:28.496Z,41.06
2019-05-29T11:41:28.293Z,40.26
2019-05-29T11:42:28.417Z,45.19
2019-05-29T11:43:28.268Z,41.15
2019-05-29T11:44:28.257Z,40.83
2019-05-29T11:45:28.253Z,40.02
2019-05-29T11:46:28.231Z,38.43
2019-05-29T11:47:28.234Z,39.23
2019-05-29T11:48:28.238Z,41.43
2019-05-29T11:49:28.200Z,39.84
2019-05-29T11:50:28.190Z,39.15
2019-05-29T11:51:28.187Z,40.55
2019-05-29T11:52:39.838Z,41.23
2019-05-29T11:53:29.176Z,43.04
2019-05-29T11:54:28.144Z,37.43
2019-05-29T11:55:28.136Z,38.23
2019-05-29T11:56:28.128Z,41.25
2019-05-29T11:57:28.112Z,41.55
2019-05-29T11:58:31.026Z,42.94
2019-05-29T11:59:28.145Z,39.12
2019-05-29T12:00:28.079Z,38.01
2019-05-29T12:01:28.065Z,39.14
2019-05-29T12:02:28.067Z,40.42
2019-05-29T12:03:28.045Z,38.81
2019-05-29T12:04:28.035Z,38.42
2019-05-29T12:05:28.046Z,39.82
2019-05-29T12:06:28.049Z,41.21
2019-05-29T12:07:28.003Z,38.79
2019-05-29T12:08:27.991Z,38.49
2019-05-29T12:09:32.726Z,38.07
2019-05-29T12:10:28.986Z,37.17
2019-05-29T12:11:27.968Z,39.00
2019-05-29T12:12:27.949Z,38.09
2019-05-29T12:13:27.936Z,38.68
2019-05-29T12:14:27.924Z,36.77
2019-05-29T12:15:27.915Z,35.06
2019-05-29T12:16:27.918Z,35.18
2019-05-29T12:17:27.924Z,36.89
2019-05-29T12:18:27.894Z,38.38
2019-05-29T12:19:27.887Z,39.38
2019-05-29T12:20:28.998Z,36.47
2019-05-29T12:21:27.852Z,37.87
2019-05-29T12:22:27.854Z,35.36
2019-05-29T12:23:27.843Z,36.29
2019-05-29T12:24:27.821Z,38.98
2019-05-29T12:25:27.803Z,39.88
2019-05-29T12:26:27.792Z,40.39
2019-05-29T12:27:27.798Z,42.58
2019-05-29T12:28:27.781Z,42.25
2019-05-29T12:29:27.780Z,38.54
2019-05-29T12:30:27.749Z,37.84
2019-05-29T12:31:27.772Z,36.65
2019-05-29T12:32:27.743Z,36.15
2019-05-29T12:33:27.717Z,38.36
2019-05-29T12:34:27.707Z,38.88
2019-05-29T12:35:27.708Z,38.68
2019-05-29T12:36:27.684Z,38.40
2019-05-29T12:37:27.688Z,38.21
2019-05-29T12:38:27.665Z,39.22
2019-05-29T12:39:27.654Z,39.32
2019-05-29T12:40:27.640Z,38.81
2019-05-29T12:41:27.654Z,39.72
2019-05-29T12:42:27.632Z,42.13
2019-05-29T12:43:28.259Z,40.91
2019-05-29T12:44:27.598Z,41.29
2019-05-29T12:45:27.591Z,39.69
2019-05-29T12:46:27.574Z,39.60
2019-05-29T12:47:27.576Z,38.58
2019-05-29T12:48:27.567Z,39.80
2019-05-29T12:49:27.543Z,39.20
2019-05-29T12:50:27.534Z,39.10
2019-05-29T12:51:27.536Z,39.10
2019-05-29T12:52:27.510Z,40.41